Time;durP1;ratioP1;P1;durP2;ratioP2;P2;SDS_P1;SDS_P2;PMS_P1;PMS_P2;Temp;Humidity;BMP_temperature;BMP_pressure;BME280_temperature;BME280_humidity;BME280_pressure;Samples;Min_cycle;Max_cycle;Signal;HPM_P1;HPM_P2
2022/02/08 00:00:54;;;;;;;;;;;12.20;99.90;;;;;;5053564;28;20365;-76
2022/02/08 00:03:21;;;;;;;;;;;12.10;99.90;;;;;;5070562;28;19913;-76
2022/02/08 00:06:01;;;;;;;;;;;12.20;99.90;;;;;;5070399;28;19919;-76
2022/02/08 00:08:27;;;;;;;;;;;12.10;99.90;;;;;;5069198;28;20402;-76
2022/02/08 00:10:52;;;;;;;;;;;12.10;99.90;;;;;;5070331;28;19919;-76
2022/02/08 00:13:18;;;;;;;;;;;12.10;99.90;;;;;;5069084;28;19913;-77
2022/02/08 00:15:43;;;;;;;;;;;12.10;99.90;;;;;;5069085;28;20421;-76
2022/02/08 00:18:09;;;;;;;;;;;12.10;99.90;;;;;;5070291;28;20018;-76
2022/02/08 00:20:34;;;;;;;;;;;12.20;99.90;;;;;;5070124;28;20141;-76
2022/02/08 00:23:00;;;;;;;;;;;12.20;99.90;;;;;;5070123;28;19916;-76
2022/02/08 00:25:25;;;;;;;;;;;12.20;99.90;;;;;;5068784;28;20306;-76
2022/02/08 00:27:51;;;;;;;;;;;12.20;99.90;;;;;;5070069;28;19919;-76
2022/02/08 00:30:17;;;;;;;;;;;12.30;99.90;;;;;;5069812;28;20413;-76
2022/02/08 00:32:42;;;;;;;;;;;12.30;99.90;;;;;;5052316;28;19913;-75
2022/02/08 00:35:08;;;;;;;;;;;12.30;99.90;;;;;;5068436;28;20018;-76
2022/02/08 00:37:34;;;;;;;;;;;12.40;99.90;;;;;;5069977;28;19912;-75
2022/02/08 00:39:59;;;;;;;;;;;12.40;99.90;;;;;;5069748;28;19917;-76
2022/02/08 00:42:25;;;;;;;;;;;12.40;99.90;;;;;;5070205;28;19908;-76
2022/02/08 00:44:59;;;;;;;;;;;12.40;99.90;;;;;;5068476;28;19920;-76
2022/02/08 00:47:36;;;;;;;;;;;12.40;99.90;;;;;;5068336;28;19920;-75
2022/02/08 00:50:07;;;;;;;;;;;12.40;99.90;;;;;;5069569;28;19908;-75
2022/02/08 00:52:34;;;;;;;;;;;12.40;99.90;;;;;;5069628;28;19909;-76
2022/02/08 00:55:00;;;;;;;;;;;12.40;99.90;;;;;;5069595;28;19913;-75
2022/02/08 00:57:25;;;;;;;;;;;12.40;99.90;;;;;;5068263;28;19909;-76
2022/02/08 00:59:51;;;;;;;;;;;12.40;99.90;;;;;;5067998;28;19962;-76
2022/02/08 01:02:17;;;;;;;;;;;12.40;99.90;;;;;;5068273;28;19912;-76
2022/02/08 01:04:48;;;;;;;;;;;12.40;99.90;;;;;;5069331;28;19916;-75
2022/02/08 01:07:14;;;;;;;;;;;12.40;99.90;;;;;;5068293;28;20382;-75
2022/02/08 01:09:47;;;;;;;;;;;12.40;99.90;;;;;;5069246;28;19923;-76
2022/02/08 01:12:14;;;;;;;;;;;12.40;99.90;;;;;;5069218;28;19913;-76
2022/02/08 01:14:42;;;;;;;;;;;12.40;99.90;;;;;;5069087;28;20209;-76
2022/02/08 01:17:08;;;;;;;;;;;12.40;99.90;;;;;;5069143;28;20363;-76
2022/02/08 01:19:35;;;;;;;;;;;12.40;99.90;;;;;;5067772;28;19920;-75
2022/02/08 01:22:00;;;;;;;;;;;12.40;99.90;;;;;;5069016;28;19931;-76
2022/02/08 01:24:26;;;;;;;;;;;12.40;99.90;;;;;;5067755;28;19913;-76
2022/02/08 01:27:01;;;;;;;;;;;12.40;99.90;;;;;;5068877;28;19920;-76
2022/02/08 01:32:49;;;;;;;;;;;12.40;99.90;;;;;;5069260;28;20294;-76
2022/02/08 01:35:22;;;;;;;;;;;12.40;99.90;;;;;;5068570;28;19913;-76
2022/02/08 01:45:45;;;;;;;;;;;12.40;99.90;;;;;;5068651;28;20328;-77
2022/02/08 01:48:27;;;;;;;;;;;12.40;99.90;;;;;;5068133;28;20343;-76
2022/02/08 01:50:55;;;;;;;;;;;12.40;99.90;;;;;;5068463;28;20347;-76
2022/02/08 01:53:21;;;;;;;;;;;12.40;99.90;;;;;;5067211;28;20298;-76
2022/02/08 01:55:46;;;;;;;;;;;12.30;99.90;;;;;;5068347;28;20011;-76
2022/02/08 01:58:12;;;;;;;;;;;12.40;99.90;;;;;;5068876;28;19999;-76
2022/02/08 02:00:38;;;;;;;;;;;12.30;99.90;;;;;;5068359;28;19908;-76
2022/02/08 02:03:04;;;;;;;;;;;12.30;99.90;;;;;;5067130;28;19924;-76
2022/02/08 02:05:30;;;;;;;;;;;12.30;99.90;;;;;;5066951;28;19961;-76
2022/02/08 02:07:56;;;;;;;;;;;12.30;99.90;;;;;;5068210;28;20336;-76
2022/02/08 02:10:22;;;;;;;;;;;12.30;99.90;;;;;;5066927;28;20019;-76
2022/02/08 02:12:49;;;;;;;;;;;12.40;99.90;;;;;;5068143;28;20424;-75
2022/02/08 02:15:14;;;;;;;;;;;12.40;99.90;;;;;;5068317;28;19944;-76
2022/02/08 02:17:40;;;;;;;;;;;12.30;99.90;;;;;;5066900;28;20413;-76
2022/02/08 02:20:05;;;;;;;;;;;12.30;99.90;;;;;;5068020;28;19991;-76
2022/02/08 02:22:31;;;;;;;;;;;12.30;99.90;;;;;;5068385;28;19912;-76
2022/02/08 02:24:56;;;;;;;;;;;12.40;99.90;;;;;;5068079;28;19917;-76
2022/02/08 02:27:22;;;;;;;;;;;12.40;99.90;;;;;;5068063;28;19912;-76
2022/02/08 02:29:48;;;;;;;;;;;12.40;99.90;;;;;;5067929;28;19916;-76
2022/02/08 02:32:13;;;;;;;;;;;12.40;99.90;;;;;;5068270;28;20328;-76
2022/02/08 02:34:45;;;;;;;;;;;12.40;99.90;;;;;;5068142;28;19974;-76
2022/02/08 02:37:11;;;;;;;;;;;12.40;99.90;;;;;;5068096;28;19919;-76
2022/02/08 02:39:37;;;;;;;;;;;12.40;99.90;;;;;;5067852;28;20305;-76
2022/02/08 02:42:09;;;;;;;;;;;12.40;99.90;;;;;;5066547;28;19916;-76
2022/02/08 02:44:34;;;;;;;;;;;12.40;99.90;;;;;;5067925;28;19913;-77
2022/02/08 02:47:00;;;;;;;;;;;12.40;99.90;;;;;;5067861;28;19913;-77
2022/02/08 02:49:27;;;;;;;;;;;12.40;99.90;;;;;;5067826;28;19912;-76
2022/02/08 02:51:52;;;;;;;;;;;12.40;99.90;;;;;;5066472;28;20001;-77
2022/02/08 02:54:18;;;;;;;;;;;12.30;99.90;;;;;;5067782;28;20031;-76
2022/02/08 02:56:45;;;;;;;;;;;12.30;99.90;;;;;;5067882;28;19924;-76
2022/02/08 02:59:11;;;;;;;;;;;12.30;99.90;;;;;;5070882;28;19935;-76
2022/02/08 03:01:54;;;;;;;;;;;12.30;99.90;;;;;;5071724;28;19912;-76
2022/02/08 03:20:26;;;;;;;;;;;12.20;99.90;;;;;;5070688;28;19919;-76
2022/02/08 03:22:51;;;;;;;;;;;12.20;99.90;;;;;;5071428;28;19913;-76
2022/02/08 03:25:17;;;;;;;;;;;12.20;99.90;;;;;;5071337;28;19923;-76
2022/02/08 03:27:42;;;;;;;;;;;12.20;99.90;;;;;;5071428;28;19986;-76
2022/02/08 03:30:08;;;;;;;;;;;12.20;99.90;;;;;;5070869;28;20334;-76
2022/02/08 03:32:34;;;;;;;;;;;12.20;99.90;;;;;;5069819;28;19955;-76
2022/02/08 03:34:59;;;;;;;;;;;12.20;99.90;;;;;;5071035;28;19956;-76
2022/02/08 03:37:28;;;;;;;;;;;12.20;99.90;;;;;;5069799;28;19913;-76
2022/02/08 03:40:08;;;;;;;;;;;12.20;99.90;;;;;;5071022;28;19912;-76
2022/02/08 03:42:38;;;;;;;;;;;12.20;99.90;;;;;;5069957;28;19912;-76
2022/02/08 03:45:06;;;;;;;;;;;12.20;99.90;;;;;;5070861;28;19920;-77
2022/02/08 03:47:31;;;;;;;;;;;12.20;99.90;;;;;;5070744;28;20012;-76
2022/02/08 03:49:59;;;;;;;;;;;12.20;99.90;;;;;;5069576;28;20011;-76
2022/02/08 03:52:24;;;;;;;;;;;12.20;99.90;;;;;;5069547;28;20366;-76
2022/02/08 03:54:50;;;;;;;;;;;12.20;99.90;;;;;;5070803;28;19912;-76
2022/02/08 03:57:15;;;;;;;;;;;12.20;99.90;;;;;;5070692;28;19917;-76
2022/02/08 03:59:41;;;;;;;;;;;12.20;99.90;;;;;;5069324;28;20367;-77
2022/02/08 04:07:16;;;;;;;;;;;12.20;99.90;;;;;;5070627;28;19939;-76
2022/02/08 04:09:43;;;;;;;;;;;12.20;99.90;;;;;;5069679;28;19934;-76
2022/02/08 04:12:17;;;;;;;;;;;12.10;99.90;;;;;;5070586;28;19948;-76
2022/02/08 04:15:07;;;;;;;;;;;12.10;99.90;;;;;;5069247;28;20381;-76
2022/02/08 04:31:25;;;;;;;;;;;12.10;99.90;;;;;;5070822;28;20358;-76
2022/02/08 04:42:05;;;;;;;;;;;12.20;99.90;;;;;;5070233;28;19912;-76
2022/02/08 04:46:49;;;;;;;;;;;12.30;99.90;;;;;;5068571;28;19920;-76
2022/02/08 04:49:15;;;;;;;;;;;12.40;99.90;;;;;;5069508;28;19916;-76
2022/02/08 04:51:46;;;;;;;;;;;12.40;99.90;;;;;;5069582;28;19915;-77
2022/02/08 04:54:22;;;;;;;;;;;12.40;99.90;;;;;;5069470;28;20378;-77
2022/02/08 04:57:03;;;;;;;;;;;12.40;99.90;;;;;;5069681;28;20282;-76
2022/02/08 05:45:36;;;;;;;;;;;12.50;99.90;;;;;;5067396;28;20007;-76
2022/02/08 05:48:07;;;;;;;;;;;12.50;99.90;;;;;;5068590;28;19916;-77
2022/02/08 05:50:43;;;;;;;;;;;12.50;99.90;;;;;;5067152;28;19940;-76
2022/02/08 05:53:28;;;;;;;;;;;12.50;99.90;;;;;;5068808;28;19913;-76
2022/02/08 05:55:54;;;;;;;;;;;12.50;99.90;;;;;;5068513;28;19915;-76
2022/02/08 05:58:19;;;;;;;;;;;12.50;99.90;;;;;;5068310;28;19949;-77
2022/02/08 06:00:45;;;;;;;;;;;12.60;99.90;;;;;;5066963;28;19913;-77
2022/02/08 06:03:10;;;;;;;;;;;12.50;99.90;;;;;;5068329;28;20268;-76
2022/02/08 06:05:36;;;;;;;;;;;12.50;99.90;;;;;;5068244;28;19923;-76
2022/02/08 06:08:02;;;;;;;;;;;12.50;99.90;;;;;;5068318;28;19909;-76
2022/02/08 06:10:29;;;;;;;;;;;12.50;99.90;;;;;;5068186;28;19920;-76
2022/02/08 06:12:56;;;;;;;;;;;12.50;99.90;;;;;;5050313;28;20387;-76
2022/02/08 06:15:24;;;;;;;;;;;12.50;99.90;;;;;;5068263;28;19908;-76
2022/02/08 06:17:51;;;;;;;;;;;12.50;99.90;;;;;;5066937;28;19932;-76
2022/02/08 06:20:18;;;;;;;;;;;12.50;99.90;;;;;;5066911;28;19909;-77
2022/02/08 06:22:47;;;;;;;;;;;12.60;99.90;;;;;;5067163;28;20005;-73
2022/02/08 06:25:15;;;;;;;;;;;12.60;99.90;;;;;;5066570;28;20391;-76
2022/02/08 06:27:41;;;;;;;;;;;12.60;99.90;;;;;;5067965;28;19961;-77
2022/02/08 06:30:08;;;;;;;;;;;12.60;99.90;;;;;;5066368;28;19932;-76
2022/02/08 06:32:34;;;;;;;;;;;12.60;99.90;;;;;;5066309;28;19908;-76
2022/02/08 06:35:04;;;;;;;;;;;12.60;99.90;;;;;;5067938;28;19919;-76
2022/02/08 06:37:33;;;;;;;;;;;12.60;99.90;;;;;;5067967;28;19990;-76
2022/02/08 06:39:59;;;;;;;;;;;12.60;99.90;;;;;;5066463;28;20323;-76
2022/02/08 06:42:24;;;;;;;;;;;12.60;99.90;;;;;;5067967;28;19920;-76
2022/02/08 06:44:50;;;;;;;;;;;12.60;99.90;;;;;;5066603;28;19919;-76
2022/02/08 06:47:16;;;;;;;;;;;12.60;99.90;;;;;;5067402;28;19959;-76
2022/02/08 06:49:41;;;;;;;;;;;12.60;99.90;;;;;;5066437;28;19958;-76
2022/02/08 06:52:07;;;;;;;;;;;12.60;99.90;;;;;;5067690;28;19912;-76
2022/02/08 06:54:33;;;;;;;;;;;12.60;99.90;;;;;;5068222;28;19919;-76
2022/02/08 06:56:59;;;;;;;;;;;12.50;99.90;;;;;;5067792;28;19920;-76
2022/02/08 06:59:24;;;;;;;;;;;12.50;99.90;;;;;;5067713;28;20449;-76
2022/02/08 07:01:50;;;;;;;;;;;12.40;99.90;;;;;;5067707;28;20024;-77
2022/02/08 07:04:16;;;;;;;;;;;12.40;99.90;;;;;;5066400;28;19919;-76
2022/02/08 07:06:45;;;;;;;;;;;12.30;99.90;;;;;;5049676;28;19924;-76
2022/02/08 07:09:14;;;;;;;;;;;12.30;99.90;;;;;;5067018;28;19913;-76
2022/02/08 07:11:40;;;;;;;;;;;12.20;99.90;;;;;;5067285;28;19961;-76
2022/02/08 07:14:06;;;;;;;;;;;12.20;99.90;;;;;;5065924;28;19912;-77
2022/02/08 07:16:33;;;;;;;;;;;12.10;99.90;;;;;;5067262;28;19957;-76
2022/02/08 07:18:58;;;;;;;;;;;12.10;99.90;;;;;;5067229;28;19920;-76
2022/02/08 07:21:24;;;;;;;;;;;12.10;99.90;;;;;;5067053;28;19936;-76
2022/02/08 07:23:50;;;;;;;;;;;12.10;99.90;;;;;;5067275;28;19961;-76
2022/02/08 07:26:15;;;;;;;;;;;12.10;99.90;;;;;;5067284;28;20334;-76
2022/02/08 07:28:44;;;;;;;;;;;12.00;99.90;;;;;;5067194;28;19940;-76
2022/02/08 07:31:25;;;;;;;;;;;12.00;99.90;;;;;;5066974;28;20286;-76
2022/02/08 07:33:59;;;;;;;;;;;12.10;99.90;;;;;;5065261;28;19912;-76
2022/02/08 07:36:34;;;;;;;;;;;12.10;99.90;;;;;;5065991;28;19919;-77
2022/02/08 07:39:00;;;;;;;;;;;12.00;99.90;;;;;;5066835;28;19916;-76
2022/02/08 07:41:36;;;;;;;;;;;12.00;99.90;;;;;;5067066;28;19931;-76
2022/02/08 07:44:02;;;;;;;;;;;12.00;99.90;;;;;;5067034;28;20366;-76
2022/02/08 07:46:28;;;;;;;;;;;12.10;99.90;;;;;;5069706;28;19916;-74
2022/02/08 07:48:53;;;;;;;;;;;12.10;99.90;;;;;;5070271;28;20371;-75
2022/02/08 07:51:22;;;;;;;;;;;12.10;99.90;;;;;;5070240;28;20288;-77
2022/02/08 07:53:47;;;;;;;;;;;12.10;99.90;;;;;;5070263;28;19948;-76
2022/02/08 07:56:15;;;;;;;;;;;12.10;99.90;;;;;;5070399;28;19951;-77
2022/02/08 07:58:41;;;;;;;;;;;12.10;99.90;;;;;;5069008;28;19912;-75
2022/02/08 08:01:08;;;;;;;;;;;12.10;99.90;;;;;;5069853;28;19988;-76
2022/02/08 08:03:40;;;;;;;;;;;12.20;99.90;;;;;;5070276;28;20015;-76
2022/02/08 08:06:10;;;;;;;;;;;12.20;99.90;;;;;;5068879;28;19957;-75
2022/02/08 08:08:35;;;;;;;;;;;12.30;99.90;;;;;;5070355;28;19912;-75
2022/02/08 08:11:03;;;;;;;;;;;12.30;99.90;;;;;;5069821;28;19936;-75
2022/02/08 08:13:30;;;;;;;;;;;12.30;99.90;;;;;;5070043;28;19919;-76
2022/02/08 08:16:05;;;;;;;;;;;12.30;99.90;;;;;;5070103;28;20286;-76
2022/02/08 08:20:56;;;;;;;;;;;12.40;99.90;;;;;;5069855;28;20007;-76
2022/02/08 08:23:21;;;;;;;;;;;12.40;99.90;;;;;;5068890;28;20489;-76
2022/02/08 08:25:50;;;;;;;;;;;12.40;99.90;;;;;;5070037;28;20268;-76
2022/02/08 08:28:16;;;;;;;;;;;12.40;99.90;;;;;;5068301;28;19942;-76
2022/02/08 08:30:41;;;;;;;;;;;12.40;99.90;;;;;;5050960;28;20007;-76
2022/02/08 08:33:07;;;;;;;;;;;12.40;99.90;;;;;;5069914;28;20074;-77
2022/02/08 08:35:35;;;;;;;;;;;12.40;99.90;;;;;;5068263;28;19913;-76
2022/02/08 08:38:04;;;;;;;;;;;12.40;99.90;;;;;;5068269;28;19915;-76
2022/02/08 08:43:35;;;;;;;;;;;12.40;99.90;;;;;;5069488;28;19995;-73
2022/02/08 08:49:10;;;;;;;;;;;12.40;99.90;;;;;;5049099;28;20415;-76
2022/02/08 08:51:44;;;;;;;;;;;12.40;99.90;;;;;;5067606;28;20015;-77
2022/02/08 08:54:10;;;;;;;;;;;12.50;99.90;;;;;;5067322;28;19958;-75
2022/02/08 08:56:37;;;;;;;;;;;12.50;99.90;;;;;;5066660;28;19912;-76
2022/02/08 08:59:03;;;;;;;;;;;12.50;99.90;;;;;;5068370;28;19934;-76
2022/02/08 09:01:29;;;;;;;;;;;12.50;99.90;;;;;;5071773;28;19920;-77
2022/02/08 09:03:54;;;;;;;;;;;12.60;99.90;;;;;;5087777;28;19947;-75
2022/02/08 09:06:20;;;;;;;;;;;12.60;99.90;;;;;;5086724;28;20410;-76
2022/02/08 09:08:46;;;;;;;;;;;12.60;99.90;;;;;;5088273;28;20010;-77
2022/02/08 09:11:22;;;;;;;;;;;12.60;99.90;;;;;;5087983;28;20401;-76
2022/02/08 09:13:57;;;;;;;;;;;12.60;99.90;;;;;;5087377;28;20370;-76
2022/02/08 09:16:50;;;;;;;;;;;12.70;99.90;;;;;;5088682;28;19920;-76
2022/02/08 09:32:56;;;;;;;;;;;12.60;99.90;;;;;;5088074;28;19916;-74
2022/02/08 09:34:56;;;;;;;;;;;12.50;99.90;;;;;;5080776;28;19942;-76
2022/02/08 09:37:22;;;;;;;;;;;12.50;99.90;;;;;;5086486;28;20365;-76
2022/02/08 09:39:50;;;;;;;;;;;12.40;99.90;;;;;;5069605;28;19920;-77
2022/02/08 09:42:16;;;;;;;;;;;12.40;99.90;;;;;;5086363;28;20311;-77
2022/02/08 09:44:41;;;;;;;;;;;12.30;99.90;;;;;;5086287;28;19912;-71
2022/02/08 09:47:11;;;;;;;;;;;12.30;99.90;;;;;;5086438;28;20018;-77
2022/02/08 09:49:41;;;;;;;;;;;12.30;99.90;;;;;;5086147;28;20383;-77
2022/02/08 09:52:07;;;;;;;;;;;12.30;99.90;;;;;;5086714;28;20278;-76
2022/02/08 09:54:33;;;;;;;;;;;12.20;99.90;;;;;;5087699;28;19912;-77
2022/02/08 09:56:59;;;;;;;;;;;12.20;99.90;;;;;;5087592;28;20425;-76
2022/02/08 09:59:24;;;;;;;;;;;12.10;99.90;;;;;;5086090;28;19918;-74
2022/02/08 10:01:51;;;;;;;;;;;12.10;99.90;;;;;;5086306;28;20439;-76
2022/02/08 10:04:17;;;;;;;;;;;12.10;99.90;;;;;;5087674;28;19954;-77
2022/02/08 10:06:43;;;;;;;;;;;12.10;99.90;;;;;;5086733;28;20013;-76
2022/02/08 10:09:09;;;;;;;;;;;12.20;99.90;;;;;;5087267;28;19909;-77
2022/02/08 10:22:31;;;;;;;;;;;12.30;99.90;;;;;;5088715;28;20402;-78
2022/02/08 10:24:59;;;;;;;;;;;12.40;99.90;;;;;;5087935;28;20016;-78
2022/02/08 10:27:32;;;;;;;;;;;12.50;99.90;;;;;;5088406;28;20277;-78
2022/02/08 10:30:15;;;;;;;;;;;12.40;99.90;;;;;;5081250;28;20415;-77
2022/02/08 10:38:18;;;;;;;;;;;12.40;99.90;;;;;;5087154;28;19955;-71
2022/02/08 10:40:47;;;;;;;;;;;12.50;99.90;;;;;;5087212;28;20388;-78
2022/02/08 10:43:18;;;;;;;;;;;12.50;99.90;;;;;;5087157;28;20010;-75
2022/02/08 10:45:44;;;;;;;;;;;12.50;99.90;;;;;;5086947;28;19916;-74
2022/02/08 10:48:11;;;;;;;;;;;12.50;99.90;;;;;;5087301;28;20330;-77
2022/02/08 10:50:40;;;;;;;;;;;12.50;99.90;;;;;;5088349;28;20005;-76
2022/02/08 10:53:08;;;;;;;;;;;12.50;99.90;;;;;;5083448;28;20002;-75
2022/02/08 11:00:52;;;;;;;;;;;12.50;99.90;;;;;;5091731;28;19937;-75
2022/02/08 11:03:31;;;;;;;;;;;12.50;99.90;;;;;;5090719;28;20090;-76
2022/02/08 11:06:14;;;;;;;;;;;12.60;99.90;;;;;;5081576;28;19928;-76
2022/02/08 11:14:24;;;;;;;;;;;12.90;99.90;;;;;;5081945;28;20292;-77
2022/02/08 11:19:51;;;;;;;;;;;13.20;99.90;;;;;;5083993;28;19908;-77
2022/02/08 11:22:39;;;;;;;;;;;13.50;99.90;;;;;;5088426;28;19909;-75
2022/02/08 11:25:24;;;;;;;;;;;13.70;99.90;;;;;;5086821;28;19954;-75
2022/02/08 11:28:00;;;;;;;;;;;13.80;99.90;;;;;;5084730;28;19912;-76
2022/02/08 11:47:26;;;;;;;;;;;14.20;99.90;;;;;;5091018;28;19916;-76
2022/02/08 12:07:53;;;;;;;;;;;14.10;99.90;;;;;;5090114;28;20589;-76
2022/02/08 12:10:36;;;;;;;;;;;14.10;99.90;;;;;;5085412;28;19916;-78
2022/02/08 12:54:16;;;;;;;;;;;14.30;99.90;;;;;;5091226;28;20010;-75
2022/02/08 13:02:22;;;;;;;;;;;14.10;99.90;;;;;;5090133;28;20003;-76
2022/02/08 13:05:35;;;;;;;;;;;14.10;99.90;;;;;;5088807;28;19931;-77
2022/02/08 13:17:42;;;;;;;;;;;13.90;99.90;;;;;;5090823;28;19934;-78
2022/02/08 14:07:39;;;;;;;;;;;13.40;99.90;;;;;;5091043;28;19931;-73
2022/02/08 14:15:33;;;;;;;;;;;13.30;99.90;;;;;;5090180;28;20277;-73
2022/02/08 14:18:07;;;;;;;;;;;13.30;99.90;;;;;;5089129;28;19916;-75
2022/02/08 14:25:50;;;;;;;;;;;13.40;99.90;;;;;;5089002;28;19923;-74
2022/02/08 14:31:44;;;;;;;;;;;13.50;99.90;;;;;;5068479;28;19981;-76
2022/02/08 15:07:12;;;;;;;;;;;13.80;99.90;;;;;;5091186;28;20384;-76
2022/02/08 15:09:38;;;;;;;;;;;13.80;99.90;;;;;;5091667;28;19920;-64
2022/02/08 15:12:17;;;;;;;;;;;13.70;99.90;;;;;;5091349;28;19919;-76
2022/02/08 15:14:50;;;;;;;;;;;13.70;99.90;;;;;;5091002;28;20010;-74
2022/02/08 15:17:16;;;;;;;;;;;13.60;99.90;;;;;;5092361;28;19912;-76
2022/02/08 15:19:44;;;;;;;;;;;13.60;99.90;;;;;;5091192;28;19991;-76
2022/02/08 15:22:10;;;;;;;;;;;13.60;99.90;;;;;;5091435;28;19919;-77
2022/02/08 15:24:36;;;;;;;;;;;13.60;99.90;;;;;;5090419;28;20011;-75
2022/02/08 15:27:03;;;;;;;;;;;13.50;99.90;;;;;;5091007;28;20254;-75
2022/02/08 15:29:31;;;;;;;;;;;13.40;99.90;;;;;;5091916;28;19908;-76
2022/02/08 15:31:57;;;;;;;;;;;13.40;99.90;;;;;;5090568;28;20378;-77
2022/02/08 15:34:22;;;;;;;;;;;13.30;99.90;;;;;;5091148;28;20014;-76
2022/02/08 15:36:48;;;;;;;;;;;13.30;99.90;;;;;;5091334;28;19919;-73
2022/02/08 15:39:14;;;;;;;;;;;13.20;99.90;;;;;;5091464;28;19919;-74
2022/02/08 15:41:40;;;;;;;;;;;13.20;99.90;;;;;;5091175;28;19916;-74
2022/02/08 15:44:11;;;;;;;;;;;13.20;99.90;;;;;;5086184;28;19977;-75
2022/02/08 15:46:36;;;;;;;;;;;13.20;99.90;;;;;;5089997;28;19913;-75
2022/02/08 15:49:02;;;;;;;;;;;13.20;99.90;;;;;;5091659;28;19919;-74
2022/02/08 15:51:36;;;;;;;;;;;13.10;99.90;;;;;;5090292;28;19920;-72
2022/02/08 15:57:09;;;;;;;;;;;13.00;99.90;;;;;;5091345;28;20377;-74
2022/02/08 16:05:26;;;;;;;;;;;12.80;99.90;;;;;;5078449;28;19981;-74
2022/02/08 16:08:00;;;;;;;;;;;12.70;99.90;;;;;;5082070;28;20007;-75
2022/02/08 16:10:40;;;;;;;;;;;12.70;99.90;;;;;;5075791;28;19916;-75
2022/02/08 16:13:21;;;;;;;;;;;12.70;99.90;;;;;;5077135;28;19915;-74
2022/02/08 16:18:33;;;;;;;;;;;12.70;99.90;;;;;;5080894;28;19913;-75
2022/02/08 16:22:13;;;;;;;;;;;12.70;99.90;;;;;;5085399;28;19917;-74
2022/02/08 16:24:10;;;;;;;;;;;12.60;99.90;;;;;;5082801;28;19912;-74
2022/02/08 16:32:11;;;;;;;;;;;12.60;99.90;;;;;;5090949;28;19926;-75
2022/02/08 16:53:16;;;;;;;;;;;12.50;99.90;;;;;;5090420;28;20389;-74
2022/02/08 17:00:37;;;;;;;;;;;12.50;99.90;;;;;;5090333;28;19916;-74
2022/02/08 17:03:06;;;;;;;;;;;12.40;99.90;;;;;;5088806;28;20359;-74
2022/02/08 17:05:32;;;;;;;;;;;12.40;99.90;;;;;;5088360;28;19922;-74
2022/02/08 17:07:58;;;;;;;;;;;12.40;99.90;;;;;;5090398;28;19983;-75
2022/02/08 17:13:10;;;;;;;;;;;12.40;99.90;;;;;;5083726;28;20007;-74
2022/02/08 17:35:54;;;;;;;;;;;12.30;99.90;;;;;;5084284;28;19920;-75
2022/02/08 17:45:54;;;;;;;;;;;12.40;99.90;;;;;;5072753;28;19950;-75
2022/02/08 17:48:20;;;;;;;;;;;12.40;99.90;;;;;;5089688;28;19912;-74
2022/02/08 17:50:47;;;;;;;;;;;12.40;99.90;;;;;;5089951;28;20388;-75
2022/02/08 17:53:13;;;;;;;;;;;12.40;99.90;;;;;;5089910;28;20304;-73
2022/02/08 17:55:38;;;;;;;;;;;12.40;99.90;;;;;;5089688;28;19916;-75
2022/02/08 17:58:04;;;;;;;;;;;12.40;99.90;;;;;;5089831;28;19914;-76
2022/02/08 18:00:33;;;;;;;;;;;12.40;99.90;;;;;;5088103;28;20353;-75
2022/02/08 18:03:05;;;;;;;;;;;12.30;99.90;;;;;;5088093;28;19915;-74
2022/02/08 18:05:30;;;;;;;;;;;12.30;99.90;;;;;;5089089;28;19995;-74
2022/02/08 18:07:57;;;;;;;;;;;12.30;99.90;;;;;;5088446;28;20481;-75
2022/02/08 18:10:24;;;;;;;;;;;12.30;99.90;;;;;;5089655;28;19943;-76
2022/02/08 18:12:52;;;;;;;;;;;12.30;99.90;;;;;;5088548;28;19912;-77
2022/02/08 18:15:18;;;;;;;;;;;12.30;99.90;;;;;;5089693;28;19912;-77
2022/02/08 18:17:49;;;;;;;;;;;12.30;99.90;;;;;;5087389;28;20398;-72
2022/02/08 18:50:45;;;;;;;;;;;12.30;99.90;;;;;;5084590;28;19955;-75
2022/02/08 19:19:54;;;;;;;;;;;12.20;99.90;;;;;;5087598;28;19919;-75
2022/02/08 19:22:22;;;;;;;;;;;12.20;99.90;;;;;;5085856;28;20378;-75
2022/02/08 19:24:48;;;;;;;;;;;12.20;99.90;;;;;;5085620;28;19923;-75
2022/02/08 19:27:16;;;;;;;;;;;12.20;99.90;;;;;;5086862;28;19916;-74
2022/02/08 19:29:42;;;;;;;;;;;12.20;99.90;;;;;;5087316;28;19919;-75
2022/02/08 19:32:08;;;;;;;;;;;12.20;99.90;;;;;;5087402;28;19920;-74
2022/02/08 19:34:34;;;;;;;;;;;12.20;99.90;;;;;;5085809;28;20011;-74
2022/02/08 19:37:05;;;;;;;;;;;12.20;99.90;;;;;;5087512;28;19916;-74
2022/02/08 19:39:31;;;;;;;;;;;12.20;99.90;;;;;;5087181;28;19921;-75
2022/02/08 19:41:57;;;;;;;;;;;12.10;99.90;;;;;;5089846;28;20323;-74
2022/02/08 19:44:22;;;;;;;;;;;12.10;99.90;;;;;;5091019;28;20037;-74
2022/02/08 19:46:48;;;;;;;;;;;12.00;99.90;;;;;;5090898;28;20365;-74
2022/02/08 19:49:13;;;;;;;;;;;11.90;99.90;;;;;;5090698;28;19916;-74
2022/02/08 19:51:39;;;;;;;;;;;11.90;99.90;;;;;;5091028;28;20338;-74
2022/02/08 19:54:08;;;;;;;;;;;11.80;99.90;;;;;;5090952;28;20422;-74
2022/02/08 19:56:40;;;;;;;;;;;11.70;99.90;;;;;;5090937;28;19912;-74
2022/02/08 19:59:08;;;;;;;;;;;11.60;99.90;;;;;;5090895;28;19915;-74
2022/02/08 20:01:36;;;;;;;;;;;11.60;99.90;;;;;;5090801;28;19908;-72
2022/02/08 20:04:19;;;;;;;;;;;11.50;99.90;;;;;;5089429;28;20360;-74
2022/02/08 20:06:46;;;;;;;;;;;11.40;99.90;;;;;;5090580;28;19912;-73
2022/02/08 20:09:11;;;;;;;;;;;11.40;99.90;;;;;;5090371;28;20292;-74
2022/02/08 20:11:38;;;;;;;;;;;11.40;99.90;;;;;;5090347;28;19970;-73
2022/02/08 20:14:04;;;;;;;;;;;11.40;99.90;;;;;;5090591;28;19912;-73
2022/02/08 20:16:31;;;;;;;;;;;11.40;99.90;;;;;;5090387;28;20121;-74
2022/02/08 20:19:00;;;;;;;;;;;11.30;99.90;;;;;;5091536;28;19909;-75
2022/02/08 20:21:27;;;;;;;;;;;11.30;99.90;;;;;;5090284;28;19930;-74
2022/02/08 20:23:54;;;;;;;;;;;11.30;99.90;;;;;;5090474;28;19919;-74
2022/02/08 20:26:25;;;;;;;;;;;11.20;99.90;;;;;;5090358;28;20365;-74
2022/02/08 20:28:54;;;;;;;;;;;11.20;99.90;;;;;;5088695;28;19937;-75
2022/02/08 20:31:19;;;;;;;;;;;11.20;99.90;;;;;;5088533;28;19960;-75
2022/02/08 20:33:45;;;;;;;;;;;11.20;99.90;;;;;;5090751;28;20331;-74
2022/02/08 20:36:11;;;;;;;;;;;11.20;99.90;;;;;;5090093;28;19923;-74
2022/02/08 20:38:37;;;;;;;;;;;11.10;99.90;;;;;;5089969;28;20289;-74
2022/02/08 20:41:03;;;;;;;;;;;11.10;99.90;;;;;;5088693;28;19916;-74
2022/02/08 20:43:33;;;;;;;;;;;11.10;99.90;;;;;;5090094;28;19982;-74
2022/02/08 20:46:00;;;;;;;;;;;11.00;99.90;;;;;;5089895;28;20427;-75
2022/02/08 20:48:27;;;;;;;;;;;11.00;99.90;;;;;;5089931;28;19947;-74
2022/02/08 20:50:58;;;;;;;;;;;10.90;99.90;;;;;;5089592;28;19918;-74
2022/02/08 20:53:36;;;;;;;;;;;10.90;99.90;;;;;;5087802;28;19959;-74
2022/02/08 20:56:13;;;;;;;;;;;10.80;99.90;;;;;;5090086;28;19965;-74
2022/02/08 21:01:23;;;;;;;;;;;10.70;99.90;;;;;;5088890;28;20036;-74
2022/02/08 21:04:01;;;;;;;;;;;10.60;99.90;;;;;;5089651;28;20399;-73
2022/02/08 21:06:28;;;;;;;;;;;10.60;99.90;;;;;;5089477;28;19916;-74
2022/02/08 21:08:55;;;;;;;;;;;10.50;99.90;;;;;;5089431;28;19908;-74
2022/02/08 21:11:27;;;;;;;;;;;10.50;99.90;;;;;;5089310;28;19944;-74
2022/02/08 21:14:04;;;;;;;;;;;10.50;99.90;;;;;;5088188;28;19912;-75
2022/02/08 21:16:31;;;;;;;;;;;10.50;99.90;;;;;;5089423;28;19908;-75
2022/02/08 21:18:57;;;;;;;;;;;10.50;99.90;;;;;;5089187;28;19915;-74
2022/02/08 21:21:23;;;;;;;;;;;10.50;99.90;;;;;;5089247;28;20246;-74
2022/02/08 21:23:51;;;;;;;;;;;10.40;99.90;;;;;;5089589;28;19916;-74
2022/02/08 21:26:22;;;;;;;;;;;10.40;99.90;;;;;;5089136;28;19912;-74
2022/02/08 21:50:02;;;;;;;;;;;10.30;99.90;;;;;;5088766;28;19922;-75
2022/02/08 21:52:30;;;;;;;;;;;10.30;99.90;;;;;;5088744;28;20246;-75
2022/02/08 21:54:57;;;;;;;;;;;10.30;99.90;;;;;;5088698;28;19915;-75
2022/02/08 21:57:32;;;;;;;;;;;10.30;99.90;;;;;;5088710;28;19961;-74
2022/02/08 21:59:58;;;;;;;;;;;10.40;99.90;;;;;;5088811;28;20259;-74
2022/02/08 22:02:23;;;;;;;;;;;10.40;99.90;;;;;;5088588;28;20002;-74
2022/02/08 22:04:49;;;;;;;;;;;10.40;99.90;;;;;;5088143;28;19919;-75
2022/02/08 22:07:15;;;;;;;;;;;10.40;99.90;;;;;;5088924;28;19912;-75
2022/02/08 22:09:42;;;;;;;;;;;10.40;99.90;;;;;;5088191;28;19961;-75
2022/02/08 22:23:20;;;;;;;;;;;10.40;99.90;;;;;;5088670;28;19935;-74
2022/02/08 22:31:03;;;;;;;;;;;10.40;99.90;;;;;;5088137;28;20382;-74
2022/02/08 22:33:37;;;;;;;;;;;10.30;99.90;;;;;;5087175;28;20022;-74
2022/02/08 22:36:17;;;;;;;;;;;10.40;99.90;;;;;;5088302;28;19912;-74
2022/02/08 22:38:50;;;;;;;;;;;10.30;99.90;;;;;;5086444;28;20429;-74
2022/02/08 22:41:23;;;;;;;;;;;10.40;99.90;;;;;;5086835;28;19916;-74
2022/02/08 22:43:55;;;;;;;;;;;10.30;99.90;;;;;;5088128;28;20026;-75
2022/02/08 22:46:21;;;;;;;;;;;10.30;99.90;;;;;;5086675;28;20362;-74
2022/02/08 22:48:47;;;;;;;;;;;10.30;99.90;;;;;;5087816;28;19908;-74
2022/02/08 22:51:13;;;;;;;;;;;10.30;99.90;;;;;;5087902;28;19908;-74
2022/02/08 22:53:38;;;;;;;;;;;10.30;99.90;;;;;;5088019;28;20292;-75